Time;durP1;ratioP1;P1;durP2;ratioP2;P2;SDS_P1;SDS_P2;PMS_P1;PMS_P2;Temp;Humidity;BMP_temperature;BMP_pressure;BME280_temperature;BME280_humidity;BME280_pressure;Samples;Min_cycle;Max_cycle;Signal;HPM_P1;HPM_P2
2021/11/04 00:00:10;;;;;;;;;20.00;16.00;;;;;;;;5085666;27;45472;-70
2021/11/04 00:02:36;;;;;;;;;27.75;25.00;;;;;;;;5084016;27;45401;-74
2021/11/04 00:05:01;;;;;;;;;27.25;23.00;;;;;;;;5081131;27;45285;-71
2021/11/04 00:07:27;;;;;;;;;25.25;21.75;;;;;;;;5082584;27;45462;-72
2021/11/04 00:09:52;;;;;;;;;24.00;23.75;;;;;;;;5080783;27;45654;-72
2021/11/04 00:12:18;;;;;;;;;23.00;21.00;;;;;;;;5080560;27;46000;-70
2021/11/04 00:14:43;;;;;;;;;23.25;21.00;;;;;;;;5081376;27;46016;-73
2021/11/04 00:17:08;;;;;;;;;23.75;21.50;;;;;;;;5079702;27;45364;-72
2021/11/04 00:19:33;;;;;;;;;27.50;24.00;;;;;;;;5082183;27;45714;-73
2021/11/04 00:21:59;;;;;;;;;25.00;22.00;;;;;;;;5083006;28;45402;-80
2021/11/04 00:24:24;;;;;;;;;26.75;22.75;;;;;;;;5082190;27;45201;-83
2021/11/04 00:26:49;;;;;;;;;33.00;30.50;;;;;;;;5083357;27;45218;-79
2021/11/04 00:29:15;;;;;;;;;28.50;24.75;;;;;;;;5081183;27;45307;-76
2021/11/04 00:31:40;;;;;;;;;21.50;21.50;;;;;;;;5078791;28;45612;-72
2021/11/04 00:34:05;;;;;;;;;22.00;20.50;;;;;;;;5078212;27;45248;-71
2021/11/04 00:36:30;;;;;;;;;24.00;20.25;;;;;;;;5079388;27;45320;-71
2021/11/04 00:38:56;;;;;;;;;23.25;22.25;;;;;;;;5078249;28;45179;-71
2021/11/04 00:41:21;;;;;;;;;26.75;22.75;;;;;;;;5078594;28;46163;-71
2021/11/04 00:43:46;;;;;;;;;25.50;21.50;;;;;;;;5076633;28;45593;-71
2021/11/04 00:46:12;;;;;;;;;23.00;19.00;;;;;;;;5078934;27;45186;-70
2021/11/04 00:48:37;;;;;;;;;21.00;18.50;;;;;;;;5077134;27;45216;-70
2021/11/04 00:51:04;;;;;;;;;26.75;20.00;;;;;;;;5077988;27;46355;-77
2021/11/04 00:53:29;;;;;;;;;19.25;18.25;;;;;;;;5077964;27;45529;-71
2021/11/04 00:55:56;;;;;;;;;23.00;19.75;;;;;;;;5078447;28;45439;-71
2021/11/04 00:58:22;;;;;;;;;26.75;20.00;;;;;;;;5079145;27;45465;-73
2021/11/04 01:00:47;;;;;;;;;24.00;20.50;;;;;;;;5078499;27;46256;-72
2021/11/04 01:03:12;;;;;;;;;21.75;21.25;;;;;;;;5077757;28;45357;-72
2021/11/04 01:05:38;;;;;;;;;19.50;17.25;;;;;;;;5077715;27;45263;-72
2021/11/04 01:08:03;;;;;;;;;25.25;20.75;;;;;;;;5078044;27;45258;-71
2021/11/04 01:10:29;;;;;;;;;21.50;20.50;;;;;;;;5077521;27;45340;-71
2021/11/04 01:12:54;;;;;;;;;18.50;16.50;;;;;;;;5078258;27;45257;-74
2021/11/04 01:15:19;;;;;;;;;23.00;22.50;;;;;;;;5077912;28;45317;-72
2021/11/04 01:17:45;;;;;;;;;25.75;20.00;;;;;;;;5078457;27;45211;-73
2021/11/04 01:20:10;;;;;;;;;23.75;20.75;;;;;;;;5077449;28;45363;-72
2021/11/04 01:22:36;;;;;;;;;24.00;22.00;;;;;;;;5078104;27;45294;-71
2021/11/04 01:25:01;;;;;;;;;22.75;20.75;;;;;;;;5079093;27;45325;-72
2021/11/04 01:27:26;;;;;;;;;31.00;25.25;;;;;;;;5080392;27;45477;-71
2021/11/04 01:29:51;;;;;;;;;21.00;19.50;;;;;;;;5078686;27;45515;-72
2021/11/04 01:32:17;;;;;;;;;15.25;15.25;;;;;;;;5081036;28;45296;-72
2021/11/04 01:34:42;;;;;;;;;19.00;16.75;;;;;;;;5079524;27;45527;-71
2021/11/04 01:37:07;;;;;;;;;20.00;19.00;;;;;;;;5079859;27;45209;-73
2021/11/04 01:39:33;;;;;;;;;18.75;16.75;;;;;;;;5080477;27;45562;-72
2021/11/04 01:41:58;;;;;;;;;22.00;16.75;;;;;;;;5078288;28;45430;-70
2021/11/04 01:44:23;;;;;;;;;18.75;17.25;;;;;;;;5081849;28;45318;-72
2021/11/04 01:46:49;;;;;;;;;20.00;16.00;;;;;;;;5081404;27;45623;-69
2021/11/04 01:49:15;;;;;;;;;23.50;19.50;;;;;;;;5079469;27;45339;-71
2021/11/04 01:51:40;;;;;;;;;17.25;17.25;;;;;;;;5079993;27;45364;-72
2021/11/04 01:54:05;;;;;;;;;20.75;18.75;;;;;;;;5081090;27;45411;-71
2021/11/04 01:56:30;;;;;;;;;18.75;18.00;;;;;;;;5080681;27;45268;-70
2021/11/04 01:58:56;;;;;;;;;18.25;16.25;;;;;;;;5079781;28;47562;-72
2021/11/04 02:01:21;;;;;;;;;24.00;18.50;;;;;;;;5079864;27;45349;-71
2021/11/04 02:03:59;;;;;;;;;23.25;19.25;;;;;;;;5079738;27;45431;-70
2021/11/04 02:06:33;;;;;;;;;20.75;18.50;;;;;;;;5077659;28;45455;-73
2021/11/04 02:09:01;;;;;;;;;26.00;23.00;;;;;;;;5078454;27;45338;-72
2021/11/04 02:11:37;;;;;;;;;26.50;22.50;;;;;;;;5077740;27;45260;-72
2021/11/04 02:14:22;;;;;;;;;25.00;23.00;;;;;;;;5076945;28;45301;-71
2021/11/04 02:16:48;;;;;;;;;24.25;20.75;;;;;;;;5078234;27;45373;-69
2021/11/04 02:19:18;;;;;;;;;24.50;22.25;;;;;;;;5078094;27;45446;-70
2021/11/04 02:22:00;;;;;;;;;25.00;19.75;;;;;;;;5079044;27;45499;-71
2021/11/04 02:24:25;;;;;;;;;22.50;18.75;;;;;;;;5077899;28;45260;-72
2021/11/04 02:26:51;;;;;;;;;22.00;20.50;;;;;;;;5078090;27;45368;-71
2021/11/04 02:29:17;;;;;;;;;19.75;19.25;;;;;;;;5079006;27;45424;-71
2021/11/04 02:31:44;;;;;;;;;16.75;16.75;;;;;;;;5078554;28;45475;-76
2021/11/04 02:34:09;;;;;;;;;15.50;13.25;;;;;;;;5076914;27;45448;-74
2021/11/04 02:36:34;;;;;;;;;17.00;16.25;;;;;;;;5077670;28;45320;-73
2021/11/04 02:39:00;;;;;;;;;18.75;16.25;;;;;;;;5077290;27;45328;-72
2021/11/04 02:41:25;;;;;;;;;22.75;15.25;;;;;;;;5078447;27;45370;-75
2021/11/04 02:43:51;;;;;;;;;24.50;17.00;;;;;;;;5081179;28;45249;-77
2021/11/04 02:46:16;;;;;;;;;21.50;18.75;;;;;;;;5083158;28;45235;-78
2021/11/04 02:48:41;;;;;;;;;24.25;21.50;;;;;;;;5083047;27;45356;-80
2021/11/04 02:51:07;;;;;;;;;23.50;20.50;;;;;;;;5082514;27;45202;-81
2021/11/04 02:53:32;;;;;;;;;23.75;20.00;;;;;;;;5081832;27;45380;-78
2021/11/04 02:55:58;;;;;;;;;22.75;19.50;;;;;;;;5077824;27;45229;-75
2021/11/04 02:58:24;;;;;;;;;20.25;18.25;;;;;;;;5076197;28;46487;-70
2021/11/04 03:00:50;;;;;;;;;22.00;19.00;;;;;;;;5075152;27;45419;-73
2021/11/04 03:03:16;;;;;;;;;24.00;20.75;;;;;;;;5076806;27;45483;-70
2021/11/04 03:05:42;;;;;;;;;19.50;18.50;;;;;;;;5076066;27;45319;-71
2021/11/04 03:08:07;;;;;;;;;23.50;22.50;;;;;;;;5077234;27;46622;-73
2021/11/04 03:10:32;;;;;;;;;22.25;19.00;;;;;;;;5078732;28;45428;-73
2021/11/04 03:12:58;;;;;;;;;25.00;22.25;;;;;;;;5077944;27;45378;-71
2021/11/04 03:15:23;;;;;;;;;23.75;22.75;;;;;;;;5077853;27;45433;-70
2021/11/04 03:17:49;;;;;;;;;23.75;22.75;;;;;;;;5077022;27;46371;-73
2021/11/04 03:20:16;;;;;;;;;24.75;21.25;;;;;;;;5082298;27;45240;-69
2021/11/04 03:22:42;;;;;;;;;13.50;12.00;;;;;;;;5081454;27;45427;-73
2021/11/04 03:25:08;;;;;;;;;19.50;16.25;;;;;;;;5079626;28;45281;-74
2021/11/04 03:27:35;;;;;;;;;26.75;20.75;;;;;;;;5080130;28;45475;-72
2021/11/04 03:30:01;;;;;;;;;7.00;7.00;;;;;;;;5080668;27;45313;-70
2021/11/04 03:32:27;;;;;;;;;22.25;19.75;;;;;;;;5081643;27;45267;-71
2021/11/04 03:34:53;;;;;;;;;26.00;21.25;;;;;;;;5081890;27;45569;-71
2021/11/04 03:37:20;;;;;;;;;21.75;21.25;;;;;;;;5081032;27;45531;-72
2021/11/04 03:39:46;;;;;;;;;26.75;21.75;;;;;;;;5080353;27;45322;-75
2021/11/04 03:42:11;;;;;;;;;23.00;19.75;;;;;;;;5079498;27;45339;-77
2021/11/04 03:44:38;;;;;;;;;29.25;23.50;;;;;;;;5080225;27;45570;-70
2021/11/04 03:47:03;;;;;;;;;27.00;22.25;;;;;;;;5079132;27;47022;-70
2021/11/04 03:49:31;;;;;;;;;26.50;21.25;;;;;;;;5080472;27;45263;-75
2021/11/04 03:51:56;;;;;;;;;25.50;21.50;;;;;;;;5079607;27;45341;-70
2021/11/04 03:54:22;;;;;;;;;21.50;21.00;;;;;;;;5081491;27;45617;-71
2021/11/04 03:56:48;;;;;;;;;22.75;19.50;;;;;;;;5081507;28;46273;-71
2021/11/04 03:59:13;;;;;;;;;19.25;18.25;;;;;;;;5079976;27;45311;-70
2021/11/04 04:01:38;;;;;;;;;25.75;19.00;;;;;;;;5080273;27;45248;-75
2021/11/04 04:04:04;;;;;;;;;22.75;21.75;;;;;;;;5080056;27;45370;-77
2021/11/04 04:06:30;;;;;;;;;24.25;17.50;;;;;;;;5079713;27;45298;-71
2021/11/04 04:08:55;;;;;;;;;23.75;23.75;;;;;;;;5080112;28;45303;-70
2021/11/04 04:11:22;;;;;;;;;22.25;20.00;;;;;;;;5080331;27;45374;-77
2021/11/04 04:13:47;;;;;;;;;22.75;21.00;;;;;;;;5079451;27;45226;-72
2021/11/04 04:16:13;;;;;;;;;22.50;22.00;;;;;;;;5078607;27;46100;-71
2021/11/04 04:18:38;;;;;;;;;25.50;20.75;;;;;;;;5078699;28;45630;-71
2021/11/04 04:21:03;;;;;;;;;23.75;22.25;;;;;;;;5079002;27;45414;-71
2021/11/04 04:23:28;;;;;;;;;25.00;22.50;;;;;;;;5079081;27;45409;-74
2021/11/04 04:25:54;;;;;;;;;23.00;22.50;;;;;;;;5078637;27;45857;-70
2021/11/04 04:28:19;;;;;;;;;13.75;13.50;;;;;;;;5078659;27;45318;-70
2021/11/04 04:30:45;;;;;;;;;24.75;22.75;;;;;;;;5078363;27;45366;-72
2021/11/04 04:33:10;;;;;;;;;18.25;16.25;;;;;;;;5078979;27;45526;-70
2021/11/04 04:35:35;;;;;;;;;21.00;18.50;;;;;;;;5078422;27;45343;-71
2021/11/04 04:38:01;;;;;;;;;33.00;23.25;;;;;;;;5078085;27;45304;-70
2021/11/04 04:40:26;;;;;;;;;25.00;23.25;;;;;;;;5078818;27;45300;-71
2021/11/04 04:42:51;;;;;;;;;29.25;25.75;;;;;;;;5078783;27;45659;-70
2021/11/04 04:45:16;;;;;;;;;29.00;24.75;;;;;;;;5076808;28;47308;-71
2021/11/04 04:47:42;;;;;;;;;28.00;27.00;;;;;;;;5077316;27;45336;-72
2021/11/04 04:50:08;;;;;;;;;27.75;24.75;;;;;;;;5077721;27;45445;-72
2021/11/04 04:52:33;;;;;;;;;37.25;27.50;;;;;;;;5076445;28;45347;-72
2021/11/04 04:54:58;;;;;;;;;31.00;29.25;;;;;;;;5077422;28;46184;-71
2021/11/04 04:57:24;;;;;;;;;29.25;26.75;;;;;;;;5077970;27;45179;-74
2021/11/04 04:59:52;;;;;;;;;29.50;26.25;;;;;;;;5078561;27;45340;-76
2021/11/04 05:02:19;;;;;;;;;28.75;27.50;;;;;;;;5076717;28;45544;-73
2021/11/04 05:04:44;;;;;;;;;37.25;30.25;;;;;;;;5079475;27;46099;-71
2021/11/04 05:07:09;;;;;;;;;31.75;27.25;;;;;;;;5078154;27;45410;-75
2021/11/04 05:09:34;;;;;;;;;32.75;27.00;;;;;;;;5078134;27;45423;-74
2021/11/04 05:12:00;;;;;;;;;30.25;28.00;;;;;;;;5079057;28;45360;-73
2021/11/04 05:14:25;;;;;;;;;32.00;30.50;;;;;;;;5080534;27;45446;-76
2021/11/04 05:16:50;;;;;;;;;33.75;30.75;;;;;;;;5078247;27;45388;-72
2021/11/04 05:19:16;;;;;;;;;29.75;27.75;;;;;;;;5077606;27;45538;-71
2021/11/04 05:21:41;;;;;;;;;32.00;29.75;;;;;;;;5077452;27;45390;-73
2021/11/04 05:24:08;;;;;;;;;29.00;28.50;;;;;;;;5077011;27;45373;-73
2021/11/04 05:26:34;;;;;;;;;30.75;30.00;;;;;;;;5076088;28;45213;-72
2021/11/04 05:28:59;;;;;;;;;35.25;32.25;;;;;;;;5077533;27;45209;-71
2021/11/04 05:31:25;;;;;;;;;31.75;27.00;;;;;;;;5077651;27;45213;-73
2021/11/04 05:33:53;;;;;;;;;36.50;29.00;;;;;;;;5076507;27;45713;-73
2021/11/04 05:36:18;;;;;;;;;30.00;28.25;;;;;;;;5077200;27;45377;-72
2021/11/04 05:38:43;;;;;;;;;27.25;26.75;;;;;;;;5077094;27;46046;-72
2021/11/04 05:41:08;;;;;;;;;35.50;27.50;;;;;;;;5075919;27;45796;-72
2021/11/04 05:43:34;;;;;;;;;30.75;28.50;;;;;;;;5076365;27;45706;-74
2021/11/04 05:46:01;;;;;;;;;29.75;28.25;;;;;;;;5075944;28;45533;-73
2021/11/04 05:48:26;;;;;;;;;32.25;28.75;;;;;;;;5078712;27;45468;-74
2021/11/04 05:50:51;;;;;;;;;31.50;27.25;;;;;;;;5078445;27;45293;-72
2021/11/04 05:53:16;;;;;;;;;30.50;26.25;;;;;;;;5078900;28;46458;-75
2021/11/04 05:55:42;;;;;;;;;26.75;23.75;;;;;;;;5078012;27;45413;-72
2021/11/04 05:58:07;;;;;;;;;26.75;21.50;;;;;;;;5079222;28;45360;-73
2021/11/04 06:00:32;;;;;;;;;25.75;24.25;;;;;;;;5078043;28;45237;-71
2021/11/04 06:02:58;;;;;;;;;31.00;28.25;;;;;;;;5077526;27;45356;-72
2021/11/04 06:05:23;;;;;;;;;21.75;21.00;;;;;;;;5079241;27;45364;-72
2021/11/04 06:07:48;;;;;;;;;23.25;23.25;;;;;;;;5080188;27;45244;-72
2021/11/04 06:10:16;;;;;;;;;29.50;26.50;;;;;;;;5078351;28;45224;-72
2021/11/04 06:12:41;;;;;;;;;26.75;24.75;;;;;;;;5078020;27;46244;-72
2021/11/04 06:15:07;;;;;;;;;27.50;25.25;;;;;;;;5078669;27;45273;-73
2021/11/04 06:17:32;;;;;;;;;27.25;26.25;;;;;;;;5078524;27;45163;-72
2021/11/04 06:19:57;;;;;;;;;31.50;28.00;;;;;;;;5078340;28;45228;-73
2021/11/04 06:22:22;;;;;;;;;31.00;26.50;;;;;;;;5077530;27;46036;-73
2021/11/04 06:24:47;;;;;;;;;28.75;23.50;;;;;;;;5077410;27;45423;-73
2021/11/04 06:27:13;;;;;;;;;27.25;23.50;;;;;;;;5077703;27;45220;-71
2021/11/04 06:29:38;;;;;;;;;27.50;23.25;;;;;;;;5079277;27;45171;-73
2021/11/04 06:32:03;;;;;;;;;28.50;26.50;;;;;;;;5080226;27;45436;-78
2021/11/04 06:34:28;;;;;;;;;28.50;23.50;;;;;;;;5080515;28;45398;-72
2021/11/04 06:36:54;;;;;;;;;31.00;27.00;;;;;;;;5078458;28;45463;-71
2021/11/04 06:39:19;;;;;;;;;26.50;25.25;;;;;;;;5077018;28;45683;-72
2021/11/04 06:41:44;;;;;;;;;25.25;21.75;;;;;;;;5077017;28;45388;-73
2021/11/04 06:44:10;;;;;;;;;25.50;22.50;;;;;;;;5076149;27;45385;-72
2021/11/04 06:46:35;;;;;;;;;23.25;22.50;;;;;;;;5078156;27;45357;-72
2021/11/04 06:49:03;;;;;;;;;29.00;26.25;;;;;;;;5077255;27;45309;-72
2021/11/04 06:51:29;;;;;;;;;25.00;23.00;;;;;;;;5077300;27;45277;-75
2021/11/04 06:53:55;;;;;;;;;28.00;22.75;;;;;;;;5080396;27;45236;-72
2021/11/04 06:56:22;;;;;;;;;21.00;17.25;;;;;;;;5080461;27;45217;-74
2021/11/04 06:58:48;;;;;;;;;23.75;22.00;;;;;;;;5078843;28;45584;-73
2021/11/04 07:01:14;;;;;;;;;23.25;19.75;;;;;;;;5079663;27;45766;-72
2021/11/04 07:03:48;;;;;;;;;22.75;22.75;;;;;;;;5080173;27;45406;-72
2021/11/04 07:06:19;;;;;;;;;18.50;18.50;;;;;;;;5081365;27;45153;-71
2021/11/04 07:08:52;;;;;;;;;19.50;16.75;;;;;;;;5079661;27;45465;-72
2021/11/04 07:11:17;;;;;;;;;20.00;18.50;;;;;;;;5081394;28;46303;-71
2021/11/04 07:13:46;;;;;;;;;18.75;16.00;;;;;;;;5081117;27;45377;-72
2021/11/04 07:16:11;;;;;;;;;25.50;19.00;;;;;;;;5081249;27;45312;-72
2021/11/04 07:18:37;;;;;;;;;20.75;20.50;;;;;;;;5080941;28;45271;-72
2021/11/04 07:21:16;;;;;;;;;23.00;19.50;;;;;;;;5081108;28;45425;-75
2021/11/04 07:23:52;;;;;;;;;20.25;20.00;;;;;;;;5080048;27;45321;-72
2021/11/04 07:26:19;;;;;;;;;22.00;21.00;;;;;;;;5080450;27;45306;-72
2021/11/04 07:28:45;;;;;;;;;22.25;19.00;;;;;;;;5085059;27;45232;-74
2021/11/04 07:31:10;;;;;;;;;19.25;18.25;;;;;;;;5080263;28;47111;-74
2021/11/04 07:33:40;;;;;;;;;21.50;19.25;;;;;;;;5081908;27;45402;-76
2021/11/04 07:36:05;;;;;;;;;22.50;21.25;;;;;;;;5061449;27;45306;-74
2021/11/04 07:38:31;;;;;;;;;16.50;15.00;;;;;;;;5062878;28;45359;-74
2021/11/04 07:40:57;;;;;;;;;20.50;17.50;;;;;;;;5059893;28;47188;-75
2021/11/04 07:43:23;;;;;;;;;23.75;17.75;;;;;;;;5061230;28;45345;-74
2021/11/04 07:45:48;;;;;;;;;21.25;17.25;;;;;;;;5062385;28;45489;-73
2021/11/04 07:48:13;;;;;;;;;18.00;17.75;;;;;;;;5062049;28;45319;-74
2021/11/04 07:50:38;;;;;;;;;18.00;16.00;;;;;;;;5061054;28;47101;-73
2021/11/04 07:53:04;;;;;;;;;17.75;16.50;;;;;;;;5057587;28;45340;-73
2021/11/04 07:55:29;;;;;;;;;15.00;12.75;;;;;;;;5057806;28;45797;-72
2021/11/04 07:57:54;;;;;;;;;16.00;15.00;;;;;;;;5059556;28;45193;-73
2021/11/04 08:00:21;;;;;;;;;20.50;17.25;;;;;;;;5058351;28;45339;-71
2021/11/04 08:02:46;;;;;;;;;19.25;16.75;;;;;;;;5058111;28;45885;-75
2021/11/04 08:05:12;;;;;;;;;27.75;25.00;;;;;;;;5057864;28;45417;-71
2021/11/04 08:07:38;;;;;;;;;26.75;25.00;;;;;;;;5059094;28;45522;-71
2021/11/04 08:10:04;;;;;;;;;20.75;18.25;;;;;;;;5058553;28;47964;-72
2021/11/04 08:12:32;;;;;;;;;16.25;16.25;;;;;;;;5058465;28;45463;-71
2021/11/04 08:14:57;;;;;;;;;21.50;17.75;;;;;;;;5059422;28;45334;-72
2021/11/04 08:17:22;;;;;;;;;19.00;17.50;;;;;;;;5058975;28;45609;-75
2021/11/04 08:19:47;;;;;;;;;15.25;13.25;;;;;;;;5059031;28;46318;-73
2021/11/04 08:22:13;;;;;;;;;17.25;15.25;;;;;;;;5057857;28;45447;-74
2021/11/04 08:24:38;;;;;;;;;20.25;17.50;;;;;;;;5058017;28;45484;-75
2021/11/04 08:27:03;;;;;;;;;15.00;14.00;;;;;;;;5059845;28;45301;-74
2021/11/04 08:29:29;;;;;;;;;15.25;13.25;;;;;;;;5058775;28;45398;-74
2021/11/04 08:31:54;;;;;;;;;13.50;12.25;;;;;;;;5057605;28;45246;-71
2021/11/04 08:34:19;;;;;;;;;15.25;14.00;;;;;;;;5058608;28;45239;-77
2021/11/04 08:36:44;;;;;;;;;17.75;15.25;;;;;;;;5058858;28;45500;-71
2021/11/04 08:39:12;;;;;;;;;15.75;12.00;;;;;;;;5057902;28;45434;-74
2021/11/04 08:41:38;;;;;;;;;16.25;14.00;;;;;;;;5056511;28;45255;-72
2021/11/04 08:44:03;;;;;;;;;15.25;13.00;;;;;;;;5056739;28;45326;-73
2021/11/04 08:46:29;;;;;;;;;13.75;12.00;;;;;;;;5058917;28;45947;-74
2021/11/04 08:48:54;;;;;;;;;20.00;12.50;;;;;;;;5057760;28;45559;-75
2021/11/04 08:51:19;;;;;;;;;13.00;10.75;;;;;;;;5058560;28;45397;-72
2021/11/04 08:53:45;;;;;;;;;15.25;11.00;;;;;;;;5059108;28;45353;-73
2021/11/04 08:56:10;;;;;;;;;11.75;11.75;;;;;;;;5058971;28;45637;-72
2021/11/04 08:58:36;;;;;;;;;12.00;11.00;;;;;;;;5059237;28;46150;-71
2021/11/04 09:01:02;;;;;;;;;13.25;10.75;;;;;;;;5060040;28;45365;-71
2021/11/04 09:03:28;;;;;;;;;12.00;10.25;;;;;;;;5059520;28;45321;-72
2021/11/04 09:05:53;;;;;;;;;11.50;9.25;;;;;;;;5061037;28;45585;-75
2021/11/04 09:08:19;;;;;;;;;7.00;7.00;;;;;;;;5060264;28;46426;-77
2021/11/04 09:10:44;;;;;;;;;9.25;8.00;;;;;;;;5058614;28;45285;-76
2021/11/04 09:13:09;;;;;;;;;12.25;9.50;;;;;;;;5059227;28;45325;-78
2021/11/04 09:15:36;;;;;;;;;12.75;7.50;;;;;;;;5057596;28;45660;-73
2021/11/04 09:18:01;;;;;;;;;8.75;8.25;;;;;;;;5057629;28;48452;-73
2021/11/04 09:20:27;;;;;;;;;8.25;7.00;;;;;;;;5058858;28;45357;-72
2021/11/04 09:22:52;;;;;;;;;11.00;10.75;;;;;;;;5059831;28;45274;-74
2021/11/04 09:25:18;;;;;;;;;10.25;7.25;;;;;;;;5057697;28;45318;-76
2021/11/04 09:27:44;;;;;;;;;9.25;9.00;;;;;;;;5057460;28;45361;-71
2021/11/04 09:30:09;;;;;;;;;8.50;8.50;;;;;;;;5059288;28;45288;-74
2021/11/04 09:32:35;;;;;;;;;7.25;6.25;;;;;;;;5058084;28;45330;-71
2021/11/04 09:35:00;;;;;;;;;14.75;11.50;;;;;;;;5060741;28;45592;-75
2021/11/04 09:37:26;;;;;;;;;13.00;9.75;;;;;;;;5057034;28;46053;-75
2021/11/04 09:39:51;;;;;;;;;8.25;6.50;;;;;;;;5058573;28;46325;-76
2021/11/04 09:42:23;;;;;;;;;12.75;12.50;;;;;;;;5057842;28;45888;-73
2021/11/04 09:44:49;;;;;;;;;11.75;9.25;;;;;;;;5056604;28;45251;-71
2021/11/04 09:47:25;;;;;;;;;8.25;7.50;;;;;;;;5058717;28;45365;-72
2021/11/04 09:49:52;;;;;;;;;8.00;7.25;;;;;;;;5057721;28;45356;-73
2021/11/04 09:52:21;;;;;;;;;9.00;8.75;;;;;;;;5056909;28;45452;-72
2021/11/04 09:54:46;;;;;;;;;12.75;10.75;;;;;;;;5058113;28;45460;-71
2021/11/04 09:57:14;;;;;;;;;6.00;4.50;;;;;;;;5058258;28;46663;-74
2021/11/04 09:59:40;;;;;;;;;7.75;7.50;;;;;;;;5058297;28;45326;-74
2021/11/04 10:02:14;;;;;;;;;10.00;7.50;;;;;;;;5058340;28;45456;-72
2021/11/04 10:04:41;;;;;;;;;7.75;7.00;;;;;;;;5059746;28;45398;-72
2021/11/04 10:07:08;;;;;;;;;9.25;8.00;;;;;;;;5058485;28;46318;-73
2021/11/04 10:09:33;;;;;;;;;12.00;9.00;;;;;;;;5059787;28;45335;-72
2021/11/04 10:12:04;;;;;;;;;8.50;7.50;;;;;;;;5061080;28;45448;-74
2021/11/04 10:14:31;;;;;;;;;7.00;7.00;;;;;;;;5058739;28;45386;-75
2021/11/04 10:16:56;;;;;;;;;15.00;13.00;;;;;;;;5059664;28;46332;-76
2021/11/04 10:19:23;;;;;;;;;10.75;8.50;;;;;;;;5058178;28;45406;-76
2021/11/04 10:21:51;;;;;;;;;10.00;9.00;;;;;;;;5057613;28;45500;-73
2021/11/04 10:24:21;;;;;;;;;10.50;8.00;;;;;;;;5058724;28;45617;-74
2021/11/04 10:26:46;;;;;;;;;7.25;6.25;;;;;;;;5058196;28;45386;-75
2021/11/04 10:29:13;;;;;;;;;10.50;9.25;;;;;;;;5061044;28;45374;-72
2021/11/04 10:31:41;;;;;;;;;9.50;7.50;;;;;;;;5059532;28;45384;-73
2021/11/04 10:34:25;;;;;;;;;7.00;7.00;;;;;;;;5060713;28;45167;-73
2021/11/04 10:36:51;;;;;;;;;4.00;4.00;;;;;;;;5059401;28;46162;-74
2021/11/04 10:39:16;;;;;;;;;9.75;8.25;;;;;;;;5059298;28;45254;-73
2021/11/04 10:41:43;;;;;;;;;11.75;8.00;;;;;;;;5060964;28;44662;-76
2021/11/04 10:44:15;;;;;;;;;8.75;8.00;;;;;;;;5061577;28;45550;-75
2021/11/04 10:46:42;;;;;;;;;14.25;9.50;;;;;;;;5061193;28;46492;-74
2021/11/04 10:49:08;;;;;;;;;10.25;6.00;;;;;;;;5059048;28;45345;-76
2021/11/04 10:51:33;;;;;;;;;9.50;7.00;;;;;;;;5057719;28;45270;-72
2021/11/04 10:54:00;;;;;;;;;8.25;7.75;;;;;;;;5061252;28;45141;-73
2021/11/04 10:56:26;;;;;;;;;8.50;7.00;;;;;;;;5057360;28;45433;-74
2021/11/04 10:59:04;;;;;;;;;9.00;7.75;;;;;;;;5057358;28;45365;-75
2021/11/04 11:01:29;;;;;;;;;5.50;3.75;;;;;;;;5058174;28;45275;-73
2021/11/04 11:03:55;;;;;;;;;3.75;2.50;;;;;;;;5059723;28;45172;-74
2021/11/04 11:06:23;;;;;;;;;13.25;7.50;;;;;;;;5059232;28;45377;-77
2021/11/04 11:08:48;;;;;;;;;15.00;14.75;;;;;;;;5058344;28;45272;-77
2021/11/04 11:11:16;;;;;;;;;6.25;4.50;;;;;;;;5058376;28;45384;-75
2021/11/04 11:13:44;;;;;;;;;12.25;7.00;;;;;;;;5058358;28;45592;-72
2021/11/04 11:16:09;;;;;;;;;4.25;3.00;;;;;;;;5057019;28;47751;-73
2021/11/04 11:18:34;;;;;;;;;6.25;4.00;;;;;;;;5057480;28;45235;-73
2021/11/04 11:21:01;;;;;;;;;7.00;5.75;;;;;;;;5057629;28;45334;-72
2021/11/04 11:23:28;;;;;;;;;5.00;5.00;;;;;;;;5057579;28;45769;-72
2021/11/04 11:25:59;;;;;;;;;5.00;4.25;;;;;;;;5056253;28;45666;-72
2021/11/04 11:28:29;;;;;;;;;5.00;4.75;;;;;;;;5037862;28;45268;-73
2021/11/04 11:31:13;;;;;;;;;3.75;3.75;;;;;;;;5056941;28;45508;-73
2021/11/04 11:33:39;;;;;;;;;7.00;7.00;;;;;;;;5055992;28;45330;-73
2021/11/04 11:36:15;;;;;;;;;3.75;2.00;;;;;;;;5057383;28;45971;-72
2021/11/04 11:38:56;;;;;;;;;6.00;4.50;;;;;;;;5057982;28;45397;-73
2021/11/04 11:41:21;;;;;;;;;8.25;6.25;;;;;;;;5060379;28;45245;-73
2021/11/04 11:43:53;;;;;;;;;7.25;7.25;;;;;;;;5061294;28;45422;-71
2021/11/04 11:46:19;;;;;;;;;11.75;9.50;;;;;;;;5061101;28;45482;-73
2021/11/04 11:49:04;;;;;;;;;6.75;5.75;;;;;;;;5059755;28;45392;-78
2021/11/04 11:51:36;;;;;;;;;8.50;8.25;;;;;;;;5060592;28;45252;-73
2021/11/04 11:54:01;;;;;;;;;5.50;3.75;;;;;;;;5062860;28;45374;-71
2021/11/04 11:56:27;;;;;;;;;9.50;8.75;;;;;;;;5059405;28;46485;-71
2021/11/04 11:59:12;;;;;;;;;10.00;10.00;;;;;;;;5059421;28;45371;-73
2021/11/04 12:01:45;;;;;;;;;10.25;9.00;;;;;;;;5059215;28;45322;-72
2021/11/04 12:04:22;;;;;;;;;11.75;7.00;;;;;;;;5060345;28;45354;-71
2021/11/04 12:06:48;;;;;;;;;7.75;6.25;;;;;;;;5060469;28;46163;-71
2021/11/04 12:09:30;;;;;;;;;8.25;7.00;;;;;;;;5062158;28;45280;-71
2021/11/04 12:11:55;;;;;;;;;8.25;6.25;;;;;;;;5063064;28;45377;-73
2021/11/04 12:14:26;;;;;;;;;5.75;5.50;;;;;;;;5060524;28;45357;-74
2021/11/04 12:17:01;;;;;;;;;5.50;5.50;;;;;;;;5059768;28;46209;-71
2021/11/04 12:19:33;;;;;;;;;7.75;7.00;;;;;;;;5059722;28;45268;-72
2021/11/04 12:21:58;;;;;;;;;6.75;5.00;;;;;;;;5059620;28;45248;-73
2021/11/04 12:24:23;;;;;;;;;11.25;8.75;;;;;;;;5060332;28;45342;-75
2021/11/04 12:26:49;;;;;;;;;7.50;6.25;;;;;;;;5062003;28;46315;-74
2021/11/04 12:29:22;;;;;;;;;7.00;6.50;;;;;;;;5060450;28;45374;-74
2021/11/04 12:31:48;;;;;;;;;6.25;4.00;;;;;;;;5061612;28;45325;-72
2021/11/04 12:34:21;;;;;;;;;7.00;4.75;;;;;;;;5061955;28;45346;-74
2021/11/04 12:36:48;;;;;;;;;6.00;4.50;;;;;;;;5060844;28;47164;-74
2021/11/04 12:39:22;;;;;;;;;6.75;6.75;;;;;;;;5060777;28;45429;-72
2021/11/04 12:41:51;;;;;;;;;5.25;4.00;;;;;;;;5061893;28;45324;-75
2021/11/04 12:44:23;;;;;;;;;5.75;4.75;;;;;;;;5061177;28;45514;-72
2021/11/04 12:46:48;;;;;;;;;4.00;4.00;;;;;;;;5060056;28;47819;-72
2021/11/04 12:49:15;;;;;;;;;3.25;3.25;;;;;;;;5060365;28;45396;-73
2021/11/04 12:51:40;;;;;;;;;4.50;4.50;;;;;;;;5057255;28;45464;-74
2021/11/04 12:54:05;;;;;;;;;4.00;4.00;;;;;;;;5058480;28;45450;-72
2021/11/04 12:56:54;;;;;;;;;5.25;5.00;;;;;;;;5059483;28;46730;-77
2021/11/04 12:59:38;;;;;;;;;4.00;3.00;;;;;;;;5057555;28;45761;-72
2021/11/04 13:02:05;;;;;;;;;5.00;4.75;;;;;;;;5056939;28;45218;-74
2021/11/04 13:04:31;;;;;;;;;5.00;3.00;;;;;;;;5059693;28;45339;-75
2021/11/04 13:06:57;;;;;;;;;4.25;2.75;;;;;;;;5059667;28;46369;-73
2021/11/04 13:09:23;;;;;;;;;5.00;3.50;;;;;;;;5059218;28;45330;-73
2021/11/04 13:12:05;;;;;;;;;6.00;4.50;;;;;;;;5057919;28;45347;-74
2021/11/04 13:14:46;;;;;;;;;5.50;4.00;;;;;;;;5061155;28;45593;-72
2021/11/04 13:17:13;;;;;;;;;2.75;2.00;;;;;;;;5062740;28;45438;-73
2021/11/04 13:19:38;;;;;;;;;5.75;3.00;;;;;;;;5061319;28;45235;-71
2021/11/04 13:22:03;;;;;;;;;2.25;1.50;;;;;;;;5060711;28;45243;-72
2021/11/04 13:24:29;;;;;;;;;3.00;3.00;;;;;;;;5060574;28;45148;-74
2021/11/04 13:26:54;;;;;;;;;7.25;5.00;;;;;;;;5060041;28;46328;-72
2021/11/04 13:29:19;;;;;;;;;4.00;2.50;;;;;;;;5060065;28;45324;-72
2021/11/04 13:31:44;;;;;;;;;2.00;2.00;;;;;;;;5058739;28;45336;-73
2021/11/04 13:34:12;;;;;;;;;3.75;2.25;;;;;;;;5058055;28;45436;-70
2021/11/04 13:36:37;;;;;;;;;2.00;2.00;;;;;;;;5056343;28;48336;-72
2021/11/04 13:39:09;;;;;;;;;3.00;2.00;;;;;;;;5055404;28;45395;-72
2021/11/04 13:41:37;;;;;;;;;3.25;3.25;;;;;;;;5057759;28;45383;-73
2021/11/04 13:44:04;;;;;;;;;3.00;2.25;;;;;;;;5059418;28;45374;-72
2021/11/04 13:46:29;;;;;;;;;7.00;3.75;;;;;;;;5059159;28;46240;-74
2021/11/04 13:49:03;;;;;;;;;4.00;2.00;;;;;;;;5057018;28;45327;-74
2021/11/04 13:51:33;;;;;;;;;3.75;3.75;;;;;;;;5058585;28;45830;-73
2021/11/04 13:54:17;;;;;;;;;3.50;3.50;;;;;;;;5058859;28;45295;-73
2021/11/04 13:56:47;;;;;;;;;6.25;5.00;;;;;;;;5056355;28;46717;-78
2021/11/04 13:59:31;;;;;;;;;2.75;2.75;;;;;;;;5059522;28;45279;-78
2021/11/04 14:01:56;;;;;;;;;2.25;2.25;;;;;;;;5057632;28;45410;-71
2021/11/04 14:04:22;;;;;;;;;1.25;0.50;;;;;;;;5058556;28;45282;-71
2021/11/04 14:06:47;;;;;;;;;1.50;1.50;;;;;;;;5057838;28;47856;-72
2021/11/04 14:09:24;;;;;;;;;3.50;0.00;;;;;;;;5058991;28;45490;-72
2021/11/04 14:12:04;;;;;;;;;3.00;1.50;;;;;;;;5055708;28;45284;-74
2021/11/04 14:14:45;;;;;;;;;4.00;4.00;;;;;;;;5057148;28;45453;-71
2021/11/04 14:17:11;;;;;;;;;2.00;2.00;;;;;;;;5057790;28;46275;-73
2021/11/04 14:19:37;;;;;;;;;4.25;3.00;;;;;;;;5057126;28;45287;-76
2021/11/04 14:22:04;;;;;;;;;3.75;3.75;;;;;;;;5058676;28;45172;-71
2021/11/04 14:24:29;;;;;;;;;5.75;3.00;;;;;;;;5056058;28;45453;-73